createdAt,value
2016-07-13T00:00:10.010Z,1002.25
2016-07-13T00:01:09.990Z,1002.27
2016-07-13T00:02:09.969Z,1002.23
2016-07-13T00:03:09.950Z,1002.23
2016-07-13T00:04:09.930Z,1002.28
2016-07-13T00:05:09.908Z,1002.28
2016-07-13T00:06:09.888Z,1002.29
2016-07-13T00:07:09.867Z,1002.31
2016-07-13T00:08:09.847Z,1002.33
2016-07-13T00:09:09.826Z,1002.34
2016-07-13T00:10:09.805Z,1002.35
2016-07-13T00:11:09.785Z,1002.37
2016-07-13T00:12:09.768Z,1002.39
2016-07-13T00:13:09.747Z,1002.4
2016-07-13T00:14:09.722Z,1002.37
2016-07-13T00:15:09.701Z,1002.41
2016-07-13T00:16:09.686Z,1002.41
2016-07-13T00:17:09.660Z,1002.41
2016-07-13T00:18:09.638Z,1002.39
2016-07-13T00:19:09.619Z,1002.42
2016-07-13T00:20:09.599Z,1002.38
2016-07-13T00:21:09.576Z,1002.4
2016-07-13T00:22:09.556Z,1002.37
2016-07-13T00:23:09.537Z,1002.38
2016-07-13T00:24:09.517Z,1002.38
2016-07-13T00:25:09.495Z,1002.31
2016-07-13T00:26:09.473Z,1002.3
2016-07-13T00:27:09.454Z,1002.33
2016-07-13T00:28:09.441Z,1002.3
2016-07-13T00:29:09.412Z,1002.28
2016-07-13T00:30:09.392Z,1002.32
2016-07-13T00:31:09.372Z,1002.29
2016-07-13T00:32:09.349Z,1002.31
2016-07-13T00:33:09.327Z,1002.27
2016-07-13T00:34:09.307Z,1002.28
2016-07-13T00:35:09.287Z,1002.27
2016-07-13T00:36:09.265Z,1002.27
2016-07-13T00:37:09.245Z,1002.31
2016-07-13T00:38:09.223Z,1002.3
2016-07-13T00:39:09.203Z,1002.3
2016-07-13T00:40:09.183Z,1002.29
2016-07-13T00:41:09.161Z,1002.26
2016-07-13T00:42:09.141Z,1002.27
2016-07-13T00:43:09.120Z,1002.26
2016-07-13T00:44:09.097Z,1002.24
2016-07-13T00:45:09.077Z,1002.27
2016-07-13T00:46:09.057Z,1002.21
2016-07-13T00:47:09.034Z,1002.19
2016-07-13T00:48:09.014Z,1002.21
2016-07-13T00:49:08.994Z,1002.24
2016-07-13T00:50:08.973Z,1002.22
2016-07-13T00:51:08.950Z,1002.23
2016-07-13T00:52:08.930Z,1002.24
2016-07-13T00:53:08.909Z,1002.24
2016-07-13T00:54:08.886Z,1002.24
2016-07-13T00:55:08.866Z,1002.19
2016-07-13T00:56:08.844Z,1002.21
2016-07-13T00:57:08.823Z,1002.19
2016-07-13T00:58:08.802Z,1002.17
2016-07-13T00:59:08.781Z,1002.17
2016-07-13T01:00:08.762Z,1002.19
2016-07-13T01:01:08.740Z,1002.2
2016-07-13T01:02:08.719Z,1002.18
2016-07-13T01:03:08.696Z,1002.19
2016-07-13T01:04:08.675Z,1002.2
2016-07-13T01:05:08.654Z,1002.23
2016-07-13T01:06:08.633Z,1002.21
2016-07-13T01:07:08.611Z,1002.24
2016-07-13T01:08:08.591Z,1002.26
2016-07-13T01:09:08.570Z,1002.18
2016-07-13T01:10:08.548Z,1002.21
2016-07-13T01:11:08.528Z,1002.24
2016-07-13T01:12:08.507Z,1002.25
2016-07-13T01:13:08.484Z,1002.25
2016-07-13T01:14:08.464Z,1002.24
2016-07-13T01:15:08.443Z,1002.24
2016-07-13T01:16:08.420Z,1002.28
2016-07-13T01:17:08.399Z,1002.25
2016-07-13T01:18:08.378Z,1002.22
2016-07-13T01:19:08.357Z,1002.29
2016-07-13T01:20:08.335Z,1002.23
2016-07-13T01:21:08.314Z,1002.28
2016-07-13T01:22:08.292Z,1002.24
2016-07-13T01:23:08.271Z,1002.26
2016-07-13T01:24:08.250Z,1002.28
2016-07-13T01:25:08.229Z,1002.3
2016-07-13T01:26:08.208Z,1002.26
2016-07-13T01:27:08.186Z,1002.26
2016-07-13T01:28:08.166Z,1002.29
2016-07-13T01:29:08.144Z,1002.26
2016-07-13T01:30:08.123Z,1002.23
2016-07-13T01:31:08.102Z,1002.23
2016-07-13T01:32:08.079Z,1002.22
2016-07-13T01:33:08.070Z,1002.2
2016-07-13T01:34:08.037Z,1002.22
2016-07-13T01:35:08.014Z,1002.17
2016-07-13T01:36:07.994Z,1002.2
2016-07-13T01:37:07.973Z,1002.21
2016-07-13T01:38:07.950Z,1002.2
2016-07-13T01:39:07.930Z,1002.23
2016-07-13T01:40:07.908Z,1002.24
2016-07-13T01:41:07.888Z,1002.29
2016-07-13T01:42:07.865Z,1002.24
2016-07-13T01:43:07.843Z,1002.22
2016-07-13T01:44:07.822Z,1002.25
2016-07-13T01:45:07.799Z,1002.25
2016-07-13T01:46:07.778Z,1002.21
2016-07-13T01:47:07.757Z,1002.24
2016-07-13T01:48:07.735Z,1002.24
2016-07-13T01:49:07.714Z,1002.25
2016-07-13T01:50:07.693Z,1002.19
2016-07-13T01:51:07.671Z,1002.22
2016-07-13T01:52:07.650Z,1002.21
2016-07-13T01:53:07.626Z,1002.22
2016-07-13T01:54:07.606Z,1002.21
2016-07-13T01:55:07.584Z,1002.23
2016-07-13T01:56:07.562Z,1002.2
2016-07-13T01:57:07.541Z,1002.21
2016-07-13T01:58:07.519Z,1002.21
2016-07-13T01:59:07.498Z,1002.23
2016-07-13T02:00:07.476Z,1002.25
2016-07-13T02:01:07.455Z,1002.26
2016-07-13T02:02:07.474Z,1002.28
2016-07-13T02:03:07.412Z,1002.3
2016-07-13T02:04:07.389Z,1002.28
2016-07-13T02:05:07.367Z,1002.34
2016-07-13T02:06:07.347Z,1002.32
2016-07-13T02:07:07.325Z,1002.28
2016-07-13T02:08:07.304Z,1002.31
2016-07-13T02:09:07.292Z,1002.32
2016-07-13T02:10:07.261Z,1002.33
2016-07-13T02:11:07.236Z,1002.32
2016-07-13T02:12:07.217Z,1002.34
2016-07-13T02:13:07.194Z,1002.35
2016-07-13T02:14:07.173Z,1002.34
2016-07-13T02:15:07.150Z,1002.3
2016-07-13T02:16:07.131Z,1002.32
2016-07-13T02:17:07.107Z,1002.35
2016-07-13T02:18:07.135Z,1002.34
2016-07-13T02:19:07.065Z,1002.31
2016-07-13T02:20:07.042Z,1002.31
2016-07-13T02:21:07.021Z,1002.32
2016-07-13T02:22:06.998Z,1002.34
2016-07-13T02:23:06.976Z,1002.37
2016-07-13T02:24:06.957Z,1002.36
2016-07-13T02:25:06.934Z,1002.37
2016-07-13T02:26:06.912Z,1002.32
2016-07-13T02:27:06.889Z,1002.3
2016-07-13T02:28:06.875Z,1002.28
2016-07-13T02:29:06.845Z,1002.29
2016-07-13T02:30:06.824Z,1002.29
2016-07-13T02:31:06.803Z,1002.33
2016-07-13T02:32:06.781Z,1002.25
2016-07-13T02:33:06.758Z,1002.28
2016-07-13T02:34:06.737Z,1002.27
2016-07-13T02:35:06.715Z,1002.26
2016-07-13T02:36:06.695Z,1002.26
2016-07-13T02:37:06.672Z,1002.26
2016-07-13T02:38:06.651Z,1002.24
2016-07-13T02:39:06.629Z,1002.23
2016-07-13T02:40:06.607Z,1002.2
2016-07-13T02:41:06.585Z,1002.23
2016-07-13T02:42:06.562Z,1002.18
2016-07-13T02:43:06.542Z,1002.23
2016-07-13T02:44:06.519Z,1002.2
2016-07-13T02:45:06.496Z,1002.23
2016-07-13T02:46:06.475Z,1002.22
2016-07-13T02:47:06.455Z,1002.2
2016-07-13T02:48:06.437Z,1002.2
2016-07-13T02:49:06.409Z,1002.23
2016-07-13T02:50:06.388Z,1002.22
2016-07-13T02:51:06.366Z,1002.19
2016-07-13T02:52:06.343Z,1002.24
2016-07-13T02:53:06.323Z,1002.19
2016-07-13T02:54:06.300Z,1002.24
2016-07-13T02:55:06.277Z,1002.15
2016-07-13T02:56:06.256Z,1002.2
2016-07-13T02:57:06.236Z,1002.21
2016-07-13T02:58:06.212Z,1002.23
2016-07-13T02:59:06.190Z,1002.22
2016-07-13T03:00:06.170Z,1002.23
2016-07-13T03:01:06.148Z,1002.22
2016-07-13T03:02:06.124Z,1002.23
2016-07-13T03:03:06.104Z,1002.21
2016-07-13T03:04:06.082Z,1002.25
2016-07-13T03:05:06.060Z,1002.24
2016-07-13T03:06:06.038Z,1002.26
2016-07-13T03:07:06.016Z,1002.28
2016-07-13T03:08:05.994Z,1002.27
2016-07-13T03:09:05.972Z,1002.25
2016-07-13T03:10:05.950Z,1002.24
2016-07-13T03:11:05.929Z,1002.25
2016-07-13T03:12:05.907Z,1002.24
2016-07-13T03:13:05.883Z,1002.24
2016-07-13T03:14:05.862Z,1002.23
2016-07-13T03:15:05.844Z,1002.24
2016-07-13T03:16:05.819Z,1002.19
2016-07-13T03:17:05.796Z,1002.22
2016-07-13T03:18:05.774Z,1002.18
2016-07-13T03:19:05.752Z,1002.14
2016-07-13T03:20:05.730Z,1002.16
2016-07-13T03:21:05.709Z,1002.14
2016-07-13T03:22:05.686Z,1002.16
2016-07-13T03:23:05.665Z,1002.16
2016-07-13T03:24:05.642Z,1002.14
2016-07-13T03:25:05.620Z,1002.14
2016-07-13T03:26:05.600Z,1002.17
2016-07-13T03:27:05.577Z,1002.14
2016-07-13T03:28:05.555Z,1002.18
2016-07-13T03:29:05.533Z,1002.17
2016-07-13T03:30:05.512Z,1002.21
2016-07-13T03:31:05.488Z,1002.17
2016-07-13T03:32:05.466Z,1002.18
2016-07-13T03:33:05.447Z,1002.16
2016-07-13T03:34:05.424Z,1002.15
2016-07-13T03:35:05.400Z,1002.16
2016-07-13T03:36:05.379Z,1002.14
2016-07-13T03:37:05.357Z,1002.13
2016-07-13T03:38:05.336Z,1002.13
2016-07-13T03:39:05.314Z,1002.2
2016-07-13T03:40:05.292Z,1002.2
2016-07-13T03:41:05.269Z,1002.18
2016-07-13T03:42:05.245Z,1002.16
2016-07-13T03:43:05.226Z,1002.11
2016-07-13T03:44:05.206Z,1002.15
2016-07-13T03:45:05.180Z,1002.14
2016-07-13T03:46:05.158Z,1002.17
2016-07-13T03:47:05.137Z,1002.17
2016-07-13T03:48:05.114Z,1002.2
2016-07-13T03:49:05.094Z,1002.15
2016-07-13T03:50:05.072Z,1002.16
2016-07-13T03:51:05.049Z,1002.15
2016-07-13T03:52:05.027Z,1002.16
2016-07-13T03:53:05.005Z,1002.13
2016-07-13T03:54:04.984Z,1002.16
2016-07-13T03:55:04.960Z,1002.15
2016-07-13T03:56:04.940Z,1002.18
2016-07-13T03:57:04.917Z,1002.2
2016-07-13T03:58:04.896Z,1002.19
2016-07-13T03:59:04.873Z,1002.15
2016-07-13T04:00:04.852Z,1002.14
2016-07-13T04:01:04.829Z,1002.14
2016-07-13T04:02:04.809Z,1002.14
2016-07-13T04:03:04.786Z,1002.17
2016-07-13T04:04:04.762Z,1002.14
2016-07-13T04:05:04.743Z,1002.18
2016-07-13T04:06:04.719Z,1002.17
2016-07-13T04:07:04.703Z,1002.2
2016-07-13T04:08:04.679Z,1002.18
2016-07-13T04:09:04.654Z,1002.2
2016-07-13T04:10:04.632Z,1002.18
2016-07-13T04:11:04.612Z,1002.19
2016-07-13T04:12:04.593Z,1002.19
2016-07-13T04:13:04.567Z,1002.17
2016-07-13T04:14:04.545Z,1002.19
2016-07-13T04:15:04.523Z,1002.21
2016-07-13T04:16:04.501Z,1002.18
2016-07-13T04:17:04.479Z,1002.18
2016-07-13T04:18:04.460Z,1002.22
2016-07-13T04:19:04.436Z,1002.22
2016-07-13T04:20:04.415Z,1002.17
2016-07-13T04:21:04.393Z,1002.2
2016-07-13T04:22:04.374Z,1002.18
2016-07-13T04:23:04.351Z,1002.23
2016-07-13T04:24:04.329Z,1002.18
2016-07-13T04:25:04.308Z,1002.17
2016-07-13T04:26:04.284Z,1002.15
2016-07-13T04:27:04.265Z,1002.23
2016-07-13T04:28:04.245Z,1002.19
2016-07-13T04:29:04.222Z,1002.25
2016-07-13T04:30:04.202Z,1002.22
2016-07-13T04:31:04.180Z,1002.23
2016-07-13T04:32:04.158Z,1002.21
2016-07-13T04:33:04.138Z,1002.23
2016-07-13T04:34:04.118Z,1002.22
2016-07-13T04:35:04.095Z,1002.22
2016-07-13T04:36:04.075Z,1002.21
2016-07-13T04:37:04.053Z,1002.26
2016-07-13T04:38:04.035Z,1002.23
2016-07-13T04:39:04.010Z,1002.21
2016-07-13T04:40:03.989Z,1002.24
2016-07-13T04:41:03.968Z,1002.23
2016-07-13T04:42:03.947Z,1002.22
2016-07-13T04:43:03.927Z,1002.25
2016-07-13T04:44:03.906Z,1002.17
2016-07-13T04:45:03.885Z,1002.26
2016-07-13T04:46:03.864Z,1002.25
2016-07-13T04:47:03.843Z,1002.3
2016-07-13T04:48:03.823Z,1002.24
2016-07-13T04:49:03.801Z,1002.33
2016-07-13T04:50:03.782Z,1002.24
2016-07-13T04:51:03.760Z,1002.29
2016-07-13T04:52:03.738Z,1002.25
2016-07-13T04:53:03.718Z,1002.26
2016-07-13T04:54:03.704Z,1002.28
2016-07-13T04:55:03.677Z,1002.27
2016-07-13T04:56:03.658Z,1002.29
2016-07-13T04:57:03.637Z,1002.27
2016-07-13T04:58:03.615Z,1002.28
2016-07-13T04:59:03.595Z,1002.26
2016-07-13T05:00:03.574Z,1002.28
2016-07-13T05:01:03.554Z,1002.3
2016-07-13T05:02:03.537Z,1002.29
2016-07-13T05:03:03.514Z,1002.29
2016-07-13T05:04:03.493Z,1002.33
2016-07-13T05:05:03.471Z,1002.36
2016-07-13T05:06:03.451Z,1002.37
2016-07-13T05:07:03.430Z,1002.37
2016-07-13T05:08:03.410Z,1002.37
2016-07-13T05:09:03.391Z,1002.34
2016-07-13T05:10:03.368Z,1002.35
2016-07-13T05:11:03.354Z,1002.37
2016-07-13T05:12:03.329Z,1002.33
2016-07-13T05:13:03.310Z,1002.37
2016-07-13T05:14:03.288Z,1002.33
2016-07-13T05:15:03.268Z,1002.39
2016-07-13T05:16:03.247Z,1002.37
2016-07-13T05:17:03.227Z,1002.4
2016-07-13T05:18:03.206Z,1002.41
2016-07-13T05:19:03.187Z,1002.42
2016-07-13T05:20:03.233Z,1002.45
2016-07-13T05:21:03.149Z,1002.43
2016-07-13T05:22:03.131Z,1002.43
2016-07-13T05:23:03.104Z,1002.41
2016-07-13T05:24:03.085Z,1002.44
2016-07-13T05:25:03.075Z,1002.41
2016-07-13T05:26:03.043Z,1002.41
2016-07-13T05:27:03.024Z,1002.46
2016-07-13T05:28:03.074Z,1002.45
2016-07-13T05:29:02.988Z,1002.41
2016-07-13T05:30:02.961Z,1002.42
2016-07-13T05:31:02.943Z,1002.42
2016-07-13T05:32:02.921Z,1002.45
2016-07-13T05:33:02.902Z,1002.46
2016-07-13T05:34:02.881Z,1002.46
2016-07-13T05:35:02.860Z,1002.42
2016-07-13T05:36:02.841Z,1002.46
2016-07-13T05:37:02.819Z,1002.46
2016-07-13T05:38:02.800Z,1002.46
2016-07-13T05:39:02.779Z,1002.46
2016-07-13T05:40:02.761Z,1002.47
2016-07-13T05:41:02.741Z,1002.48
2016-07-13T05:42:02.722Z,1002.48
2016-07-13T05:43:02.700Z,1002.43
2016-07-13T05:44:02.680Z,1002.46
2016-07-13T05:45:02.661Z,1002.46
2016-07-13T05:46:02.644Z,1002.46
2016-07-13T05:47:02.622Z,1002.49
2016-07-13T05:48:02.604Z,1002.48
2016-07-13T05:49:02.585Z,1002.47
2016-07-13T05:50:02.567Z,1002.47
2016-07-13T05:51:02.548Z,1002.46
2016-07-13T05:52:02.528Z,1002.48
2016-07-13T05:53:02.510Z,1002.47
2016-07-13T05:54:02.492Z,1002.48
2016-07-13T05:55:02.472Z,1002.45
2016-07-13T05:56:02.454Z,1002.51
2016-07-13T05:57:02.438Z,1002.5
2016-07-13T05:58:02.418Z,1002.52
2016-07-13T05:59:02.399Z,1002.48
2016-07-13T06:00:02.382Z,1002.48
2016-07-13T06:01:02.364Z,1002.52
2016-07-13T06:02:02.344Z,1002.49
2016-07-13T06:03:02.329Z,1002.5
2016-07-13T06:04:02.309Z,1002.48
2016-07-13T06:05:02.291Z,1002.49
2016-07-13T06:06:02.274Z,1002.52
2016-07-13T06:07:02.256Z,1002.51
2016-07-13T06:08:02.238Z,1002.56
2016-07-13T06:09:02.222Z,1002.56
2016-07-13T06:10:02.206Z,1002.55
2016-07-13T06:11:02.187Z,1002.55
2016-07-13T06:12:02.168Z,1002.52
2016-07-13T06:13:02.152Z,1002.53
2016-07-13T06:14:02.139Z,1002.52
2016-07-13T06:15:02.119Z,1002.54
2016-07-13T06:16:02.107Z,1002.58
2016-07-13T06:17:02.089Z,1002.57
2016-07-13T06:18:02.068Z,1002.57
2016-07-13T06:19:02.049Z,1002.57
2016-07-13T06:20:02.035Z,1002.54
2016-07-13T06:21:02.023Z,1002.59
2016-07-13T06:22:02.000Z,1002.56
2016-07-13T06:23:01.985Z,1002.54
2016-07-13T06:24:01.968Z,1002.54
2016-07-13T06:25:01.952Z,1002.54
2016-07-13T06:26:01.936Z,1002.56
2016-07-13T06:27:01.920Z,1002.57
2016-07-13T06:28:01.903Z,1002.54
2016-07-13T06:29:01.888Z,1002.58
2016-07-13T06:30:01.872Z,1002.55
2016-07-13T06:31:01.856Z,1002.54
2016-07-13T06:32:01.842Z,1002.51
2016-07-13T06:33:01.826Z,1002.6
2016-07-13T06:34:01.811Z,1002.54
2016-07-13T06:35:01.796Z,1002.56
2016-07-13T06:36:01.781Z,1002.53
2016-07-13T06:37:01.765Z,1002.58
2016-07-13T06:38:01.750Z,1002.57
2016-07-13T06:39:01.736Z,1002.64
2016-07-13T06:40:01.738Z,1002.56
2016-07-13T06:41:01.706Z,1002.58
2016-07-13T06:42:01.700Z,1002.57
2016-07-13T06:43:01.678Z,1002.67
2016-07-13T06:44:01.665Z,1002.62
2016-07-13T06:45:01.652Z,1002.62
2016-07-13T06:46:01.637Z,1002.62
2016-07-13T06:47:01.625Z,1002.59
2016-07-13T06:48:01.611Z,1002.58
2016-07-13T06:49:01.597Z,1002.57
2016-07-13T06:50:01.586Z,1002.63
2016-07-13T06:51:01.571Z,1002.6
2016-07-13T06:52:01.558Z,1002.62
2016-07-13T06:53:01.550Z,1002.62
2016-07-13T06:54:01.533Z,1002.66
2016-07-13T06:55:01.522Z,1002.63
2016-07-13T06:56:01.508Z,1002.68
2016-07-13T06:57:01.496Z,1002.68
2016-07-13T06:58:01.484Z,1002.69
2016-07-13T06:59:01.471Z,1002.69
2016-07-13T07:00:01.459Z,1002.68
2016-07-13T07:01:01.446Z,1002.67
2016-07-13T07:02:01.434Z,1002.62
2016-07-13T07:03:01.420Z,1002.63
2016-07-13T07:04:01.409Z,1002.66
2016-07-13T07:05:01.397Z,1002.64
2016-07-13T07:06:01.386Z,1002.68
2016-07-13T07:07:01.374Z,1002.68
2016-07-13T07:08:01.364Z,1002.7
2016-07-13T07:09:01.350Z,1002.72
2016-07-13T07:10:01.339Z,1002.7
2016-07-13T07:11:01.327Z,1002.68
2016-07-13T07:12:01.316Z,1002.69
2016-07-13T07:13:01.311Z,1002.65
2016-07-13T07:14:01.292Z,1002.68
2016-07-13T07:15:01.280Z,1002.78
2016-07-13T07:16:01.318Z,1002.75
2016-07-13T07:17:01.258Z,1002.76
2016-07-13T07:18:01.246Z,1002.73
2016-07-13T07:19:01.235Z,1002.75
2016-07-13T07:20:01.224Z,1002.73
2016-07-13T07:21:01.212Z,1002.79
2016-07-13T07:22:01.200Z,1002.77
2016-07-13T07:23:01.190Z,1002.74
2016-07-13T07:24:01.177Z,1002.78
2016-07-13T07:25:01.164Z,1002.72
2016-07-13T07:26:01.152Z,1002.76
2016-07-13T07:27:01.140Z,1002.75
2016-07-13T07:28:01.127Z,1002.74
2016-07-13T07:29:01.115Z,1002.7
2016-07-13T07:30:01.100Z,1002.72
2016-07-13T07:31:01.090Z,1002.72
2016-07-13T07:32:01.077Z,1002.68
2016-07-13T07:33:01.064Z,1002.67
2016-07-13T07:34:01.053Z,1002.65
2016-07-13T07:35:01.040Z,1002.62
2016-07-13T07:36:01.028Z,1002.64
2016-07-13T07:37:01.014Z,1002.64
2016-07-13T07:38:01.004Z,1002.64
2016-07-13T07:39:00.991Z,1002.66
2016-07-13T07:40:00.978Z,1002.69
2016-07-13T07:41:00.966Z,1002.63
2016-07-13T07:42:00.955Z,1002.63
2016-07-13T07:43:00.943Z,1002.65
2016-07-13T07:44:00.931Z,1002.64
2016-07-13T07:45:00.920Z,1002.62
2016-07-13T07:46:00.909Z,1002.62
2016-07-13T07:47:00.897Z,1002.64
2016-07-13T07:48:00.886Z,1002.58
2016-07-13T07:49:00.874Z,1002.59
2016-07-13T07:50:00.863Z,1002.58
2016-07-13T07:51:00.852Z,1002.6
2016-07-13T07:52:00.841Z,1002.61
2016-07-13T07:53:00.831Z,1002.61
2016-07-13T07:54:00.821Z,1002.61
2016-07-13T07:55:00.812Z,1002.67
2016-07-13T07:56:00.802Z,1002.64
2016-07-13T07:57:00.803Z,1002.6
2016-07-13T07:58:00.782Z,1002.68
2016-07-13T07:59:00.774Z,1002.59
2016-07-13T08:00:00.765Z,1002.66
2016-07-13T08:01:00.756Z,1002.59
2016-07-13T08:02:00.745Z,1002.61
2016-07-13T08:03:00.736Z,1002.7
2016-07-13T08:04:00.754Z,1002.77
2016-07-13T08:05:00.725Z,1002.74
2016-07-13T08:06:00.707Z,1002.71
2016-07-13T08:07:00.698Z,1002.72
2016-07-13T08:08:00.689Z,1002.69
2016-07-13T08:09:00.677Z,1002.67
2016-07-13T08:10:00.666Z,1002.7
2016-07-13T08:11:00.655Z,1002.67
2016-07-13T08:12:00.643Z,1002.66
2016-07-13T08:13:00.632Z,1002.65
2016-07-13T08:14:00.621Z,1002.69
2016-07-13T08:15:00.609Z,1002.65
2016-07-13T08:16:00.597Z,1002.65
2016-07-13T08:17:00.586Z,1002.66
2016-07-13T08:18:00.574Z,1002.6
2016-07-13T08:19:00.563Z,1002.57
2016-07-13T08:20:00.550Z,1002.6
2016-07-13T08:21:00.540Z,1002.63
2016-07-13T08:22:00.528Z,1002.59
2016-07-13T08:23:00.517Z,1002.6
2016-07-13T08:24:00.507Z,1002.56
2016-07-13T08:25:00.497Z,1002.6
2016-07-13T08:26:00.487Z,1002.61
2016-07-13T08:27:00.475Z,1002.6
2016-07-13T08:28:00.467Z,1002.67
2016-07-13T08:29:00.456Z,1002.61
2016-07-13T08:30:00.446Z,1002.58
2016-07-13T08:31:00.435Z,1002.59
2016-07-13T08:32:00.426Z,1002.59
2016-07-13T08:33:00.416Z,1002.62
2016-07-13T08:34:00.406Z,1002.65
2016-07-13T08:35:00.396Z,1002.63
2016-07-13T08:36:00.387Z,1002.62
2016-07-13T08:37:00.375Z,1002.68
2016-07-13T08:38:00.364Z,1002.7
2016-07-13T08:39:00.355Z,1002.71
2016-07-13T08:40:00.345Z,1002.64
2016-07-13T08:41:00.334Z,1002.66
2016-07-13T08:42:00.323Z,1002.65
2016-07-13T08:43:00.313Z,1002.68
2016-07-13T08:44:00.301Z,1002.62
2016-07-13T08:45:00.291Z,1002.69
2016-07-13T08:46:00.279Z,1002.65
2016-07-13T08:47:00.269Z,1002.7
2016-07-13T08:48:00.258Z,1002.7
2016-07-13T08:49:00.246Z,1002.69
2016-07-13T08:50:00.235Z,1002.75
2016-07-13T08:51:00.224Z,1002.68
2016-07-13T08:52:00.212Z,1002.69
2016-07-13T08:53:00.200Z,1002.69
2016-07-13T08:54:00.190Z,1002.72
2016-07-13T08:55:00.178Z,1002.71
2016-07-13T08:56:00.169Z,1002.76
2016-07-13T08:57:00.157Z,1002.74
2016-07-13T08:58:00.143Z,1002.74
2016-07-13T08:59:00.134Z,1002.78
2016-07-13T09:00:00.120Z,1002.69
2016-07-13T09:01:00.110Z,1002.8
2016-07-13T09:02:00.109Z,1002.82
2016-07-13T09:03:00.087Z,1002.78
2016-07-13T09:04:00.073Z,1002.84
2016-07-13T09:05:00.064Z,1002.81
2016-07-13T09:06:00.052Z,1002.83
2016-07-13T09:07:00.039Z,1002.8
2016-07-13T09:08:00.027Z,1002.82
2016-07-13T09:09:00.021Z,1002.87
2016-07-13T09:10:00.005Z,1002.82
2016-07-13T09:10:59.991Z,1002.87
2016-07-13T09:11:59.980Z,1002.82
2016-07-13T09:12:59.968Z,1002.86
2016-07-13T09:13:59.957Z,1002.86
2016-07-13T09:14:59.944Z,1002.92
2016-07-13T09:15:59.932Z,1002.91
2016-07-13T09:16:59.922Z,1002.93
2016-07-13T09:17:59.921Z,1002.94
2016-07-13T09:18:59.904Z,1002.94
2016-07-13T09:19:59.889Z,1002.96
2016-07-13T09:20:59.875Z,1002.95
2016-07-13T09:21:59.862Z,1002.94
2016-07-13T09:22:59.852Z,1002.93
2016-07-13T09:23:59.839Z,1002.96
2016-07-13T09:24:59.827Z,1002.89
2016-07-13T09:25:59.816Z,1002.96
2016-07-13T09:26:59.802Z,1002.92
2016-07-13T09:27:59.789Z,1002.92
2016-07-13T09:28:59.776Z,1002.97
2016-07-13T09:29:59.763Z,1002.92
2016-07-13T09:30:59.752Z,1002.96
2016-07-13T09:31:59.739Z,1002.92
2016-07-13T09:32:59.726Z,1002.96
2016-07-13T09:33:59.712Z,1002.97
2016-07-13T09:34:59.701Z,1002.98
2016-07-13T09:35:59.687Z,1002.85
2016-07-13T09:36:59.674Z,1002.95
2016-07-13T09:37:59.661Z,1002.92
2016-07-13T09:38:59.649Z,1002.96
2016-07-13T09:39:59.634Z,1002.97
2016-07-13T09:40:59.622Z,1002.97
2016-07-13T09:41:59.610Z,1002.99
2016-07-13T09:42:59.597Z,1002.99
2016-07-13T09:43:59.583Z,1003
2016-07-13T09:44:59.570Z,1002.98
2016-07-13T09:45:59.559Z,1002.95
2016-07-13T09:46:59.544Z,1002.93
2016-07-13T09:47:59.531Z,1002.95
2016-07-13T09:48:59.519Z,1002.88
2016-07-13T09:49:59.506Z,1002.95
2016-07-13T09:50:59.494Z,1002.92
2016-07-13T09:51:59.481Z,1002.92
2016-07-13T09:52:59.469Z,1002.9
2016-07-13T09:53:59.456Z,1002.9
2016-07-13T09:54:59.443Z,1002.93
2016-07-13T09:55:59.430Z,1002.96
2016-07-13T09:56:59.418Z,1002.95
2016-07-13T09:57:59.411Z,1002.96
2016-07-13T09:58:59.392Z,1002.96
2016-07-13T09:59:59.382Z,1002.94
2016-07-13T10:00:59.370Z,1003
2016-07-13T10:01:59.357Z,1002.95
2016-07-13T10:02:59.344Z,1002.97
2016-07-13T10:03:59.358Z,1002.96
2016-07-13T10:04:59.320Z,1002.98
2016-07-13T10:05:59.307Z,1003.01
2016-07-13T10:06:59.296Z,1002.99
2016-07-13T10:07:59.329Z,1002.96
2016-07-13T10:08:59.272Z,1002.96
2016-07-13T10:09:59.260Z,1002.91
2016-07-13T10:10:59.249Z,1002.99
2016-07-13T10:11:59.236Z,1002.93
2016-07-13T10:12:59.224Z,1003.02
2016-07-13T10:13:59.213Z,1002.96
2016-07-13T10:14:59.200Z,1003.01
2016-07-13T10:15:59.190Z,1003
2016-07-13T10:16:59.179Z,1003.03
2016-07-13T10:17:59.166Z,1003.01
2016-07-13T10:18:59.154Z,1002.99
2016-07-13T10:19:59.142Z,1003.05
2016-07-13T10:20:59.130Z,1002.98
2016-07-13T10:21:59.119Z,1002.98
2016-07-13T10:22:59.108Z,1002.95
2016-07-13T10:23:59.094Z,1003.04
2016-07-13T10:24:59.082Z,1002.93
2016-07-13T10:25:59.071Z,1003.01
2016-07-13T10:26:59.059Z,1003.05
2016-07-13T10:27:59.044Z,1002.97
2016-07-13T10:28:59.032Z,1003.04
2016-07-13T10:29:59.021Z,1003.1
2016-07-13T10:30:59.012Z,1003.09
2016-07-13T10:31:59.003Z,1003.08
2016-07-13T10:32:58.983Z,1003.04
2016-07-13T10:33:58.969Z,1003.13
2016-07-13T10:34:58.956Z,1003.05
2016-07-13T10:35:58.943Z,1003.11
2016-07-13T10:36:58.930Z,1003.03
2016-07-13T10:37:58.925Z,1003.07
2016-07-13T10:38:58.906Z,1003.03
2016-07-13T10:39:58.893Z,1003.04
2016-07-13T10:40:58.881Z,1003.02
2016-07-13T10:41:58.869Z,1003.05
2016-07-13T10:42:58.856Z,1003
2016-07-13T10:43:58.846Z,1002.99
2016-07-13T10:44:58.833Z,1002.93
2016-07-13T10:45:58.821Z,1002.99
2016-07-13T10:46:58.810Z,1003.01
2016-07-13T10:47:58.798Z,1003.02
2016-07-13T10:48:58.787Z,1002.92
2016-07-13T10:49:58.776Z,1002.99
2016-07-13T10:50:58.766Z,1002.92
2016-07-13T10:51:58.755Z,1002.88
2016-07-13T10:52:58.744Z,1002.97
2016-07-13T10:53:58.733Z,1002.9
2016-07-13T10:54:58.723Z,1002.89
2016-07-13T10:55:58.714Z,1002.83
2016-07-13T10:56:58.702Z,1002.84
2016-07-13T10:57:58.692Z,1002.81
2016-07-13T10:58:58.685Z,1002.85
2016-07-13T10:59:58.675Z,1002.84
2016-07-13T11:00:58.666Z,1002.78
2016-07-13T11:01:58.658Z,1002.8
2016-07-13T11:02:58.809Z,1002.82
2016-07-13T11:03:58.642Z,1002.79
2016-07-13T11:04:58.636Z,1002.83
2016-07-13T11:05:58.632Z,1002.82
2016-07-13T11:06:58.622Z,1002.83
2016-07-13T11:07:58.615Z,1002.86
2016-07-13T11:08:58.609Z,1002.87
2016-07-13T11:09:58.600Z,1002.95
2016-07-13T11:10:58.597Z,1002.82
2016-07-13T11:11:58.587Z,1002.83
2016-07-13T11:12:58.583Z,1002.81
2016-07-13T11:13:58.574Z,1002.8
2016-07-13T11:14:58.565Z,1002.84
2016-07-13T11:15:58.556Z,1002.82
2016-07-13T11:16:58.548Z,1002.77
2016-07-13T11:17:58.541Z,1002.74
2016-07-13T11:18:58.533Z,1002.71
2016-07-13T11:19:58.525Z,1002.81
2016-07-13T11:20:58.518Z,1002.73
2016-07-13T11:21:58.510Z,1002.78
2016-07-13T11:22:58.503Z,1002.79
2016-07-13T11:23:58.509Z,1002.81
2016-07-13T11:24:58.488Z,1002.85
2016-07-13T11:25:58.479Z,1002.77
2016-07-13T11:26:58.478Z,1002.78
2016-07-13T11:27:58.466Z,1002.77
2016-07-13T11:28:58.457Z,1002.82
2016-07-13T11:29:58.450Z,1002.79
2016-07-13T11:30:58.442Z,1002.77
2016-07-13T11:31:58.433Z,1002.78
2016-07-13T11:32:58.426Z,1002.79
2016-07-13T11:33:58.417Z,1002.82
2016-07-13T11:34:58.408Z,1002.85
2016-07-13T11:35:58.402Z,1002.84
2016-07-13T11:36:58.393Z,1002.8
2016-07-13T11:37:58.383Z,1002.81
2016-07-13T11:38:58.377Z,1002.76
2016-07-13T11:39:58.366Z,1002.74
2016-07-13T11:40:58.357Z,1002.75
2016-07-13T11:41:58.349Z,1002.78
2016-07-13T11:42:58.341Z,1002.79
2016-07-13T11:43:58.334Z,1002.73
2016-07-13T11:44:58.323Z,1002.78
2016-07-13T11:45:58.315Z,1002.76
2016-07-13T11:46:58.307Z,1002.78
2016-07-13T11:47:58.298Z,1002.74
2016-07-13T11:48:58.291Z,1002.75
2016-07-13T11:49:58.281Z,1002.77
2016-07-13T11:50:58.273Z,1002.8
2016-07-13T11:51:58.265Z,1002.77
2016-07-13T11:52:58.255Z,1002.78
2016-07-13T11:53:58.247Z,1002.74
2016-07-13T11:54:58.239Z,1002.77
2016-07-13T11:55:58.230Z,1002.74
2016-07-13T11:56:58.222Z,1002.76
2016-07-13T11:57:58.213Z,1002.69
2016-07-13T11:58:58.203Z,1002.75
2016-07-13T11:59:58.194Z,1002.73
2016-07-13T12:00:58.186Z,1002.72
2016-07-13T12:01:58.179Z,1002.76
2016-07-13T12:02:58.179Z,1002.86
2016-07-13T12:03:58.160Z,1002.8
2016-07-13T12:04:58.152Z,1002.84
2016-07-13T12:05:58.144Z,1002.82
2016-07-13T12:06:58.133Z,1002.93
2016-07-13T12:07:58.126Z,1002.85